sensor_id;sensor_type;location;lat;lon;timestamp;temperature;humidity
1225;DHT22;602;48.000;7.840;2022-10-26T00:01:31;16.80;99.90
1225;DHT22;602;48.000;7.840;2022-10-26T00:03:58;16.80;99.90
1225;DHT22;602;48.000;7.840;2022-10-26T00:06:26;16.90;99.90
1225;DHT22;602;48.000;7.840;2022-10-26T00:08:54;16.90;99.90
1225;DHT22;602;48.000;7.840;2022-10-26T00:11:23;16.90;99.90
1225;DHT22;602;48.000;7.840;2022-10-26T00:13:50;16.90;99.90
1225;DHT22;602;48.000;7.840;2022-10-26T00:16:19;17.00;99.90
1225;DHT22;602;48.000;7.840;2022-10-26T00:18:47;17.00;99.90
1225;DHT22;602;48.000;7.840;2022-10-26T00:21:15;17.00;99.90
1225;DHT22;602;48.000;7.840;2022-10-26T00:23:42;17.00;99.90
1225;DHT22;602;48.000;7.840;2022-10-26T00:26:09;17.00;99.90
1225;DHT22;602;48.000;7.840;2022-10-26T00:28:37;16.90;99.90
1225;DHT22;602;48.000;7.840;2022-10-26T00:31:06;17.00;99.90
1225;DHT22;602;48.000;7.840;2022-10-26T00:33:34;17.00;99.90
1225;DHT22;602;48.000;7.840;2022-10-26T00:36:00;17.00;99.90
1225;DHT22;602;48.000;7.840;2022-10-26T00:38:29;16.90;99.90
1225;DHT22;602;48.000;7.840;2022-10-26T00:40:56;16.90;99.90
1225;DHT22;602;48.000;7.840;2022-10-26T00:43:40;16.80;99.90
1225;DHT22;602;48.000;7.840;2022-10-26T00:46:11;16.80;99.90
1225;DHT22;602;48.000;7.840;2022-10-26T00:48:42;16.80;99.90
1225;DHT22;602;48.000;7.840;2022-10-26T00:51:13;16.80;99.90
1225;DHT22;602;48.000;7.840;2022-10-26T00:53:41;16.90;99.90
1225;DHT22;602;48.000;7.840;2022-10-26T00:56:08;16.90;99.90
1225;DHT22;602;48.000;7.840;2022-10-26T00:58:36;16.80;99.90
1225;DHT22;602;48.000;7.840;2022-10-26T01:01:04;16.80;99.90
1225;DHT22;602;48.000;7.840;2022-10-26T01:03:32;16.70;99.90
1225;DHT22;602;48.000;7.840;2022-10-26T01:06:01;16.70;99.90
1225;DHT22;602;48.000;7.840;2022-10-26T01:08:29;16.60;99.90
1225;DHT22;602;48.000;7.840;2022-10-26T01:10:57;16.50;99.90
1225;DHT22;602;48.000;7.840;2022-10-26T01:13:25;16.50;99.90
1225;DHT22;602;48.000;7.840;2022-10-26T01:16:01;16.50;99.90
1225;DHT22;602;48.000;7.840;2022-10-26T01:18:39;16.50;99.90
1225;DHT22;602;48.000;7.840;2022-10-26T01:21:38;16.30;99.90
1225;DHT22;602;48.000;7.840;2022-10-26T01:24:21;16.40;99.90
1225;DHT22;602;48.000;7.840;2022-10-26T01:27:00;16.30;99.90
1225;DHT22;602;48.000;7.840;2022-10-26T01:29:50;16.30;99.90
1225;DHT22;602;48.000;7.840;2022-10-26T01:32:25;16.20;99.90
1225;DHT22;602;48.000;7.840;2022-10-26T01:34:56;16.30;99.90
1225;DHT22;602;48.000;7.840;2022-10-26T01:37:28;16.30;99.90
1225;DHT22;602;48.000;7.840;2022-10-26T01:40:01;16.30;99.90
1225;DHT22;602;48.000;7.840;2022-10-26T01:42:31;16.30;99.90
1225;DHT22;602;48.000;7.840;2022-10-26T01:45:02;16.30;99.90
1225;DHT22;602;48.000;7.840;2022-10-26T01:47:33;16.30;99.90
1225;DHT22;602;48.000;7.840;2022-10-26T01:50:01;16.30;99.90
1225;DHT22;602;48.000;7.840;2022-10-26T01:52:29;16.30;99.90
1225;DHT22;602;48.000;7.840;2022-10-26T01:55:00;16.30;99.90
1225;DHT22;602;48.000;7.840;2022-10-26T01:57:30;16.30;99.90
1225;DHT22;602;48.000;7.840;2022-10-26T02:00:03;16.30;99.90
1225;DHT22;602;48.000;7.840;2022-10-26T02:02:50;16.30;99.90
1225;DHT22;602;48.000;7.840;2022-10-26T02:05:28;16.40;99.90
1225;DHT22;602;48.000;7.840;2022-10-26T02:08:06;16.40;99.90
1225;DHT22;602;48.000;7.840;2022-10-26T02:10:45;16.40;99.90
1225;DHT22;602;48.000;7.840;2022-10-26T02:13:17;16.50;99.90
1225;DHT22;602;48.000;7.840;2022-10-26T02:15:50;16.50;99.90
1225;DHT22;602;48.000;7.840;2022-10-26T02:18:26;16.50;99.90
1225;DHT22;602;48.000;7.840;2022-10-26T02:20:58;16.60;99.90
1225;DHT22;602;48.000;7.840;2022-10-26T02:23:28;16.70;99.90
1225;DHT22;602;48.000;7.840;2022-10-26T02:25:58;16.70;99.90
1225;DHT22;602;48.000;7.840;2022-10-26T02:28:29;16.80;99.90
1225;DHT22;602;48.000;7.840;2022-10-26T02:30:58;16.90;99.90
1225;DHT22;602;48.000;7.840;2022-10-26T02:33:30;16.90;99.90
1225;DHT22;602;48.000;7.840;2022-10-26T02:36:01;16.80;99.90
1225;DHT22;602;48.000;7.840;2022-10-26T02:38:30;16.80;99.90
1225;DHT22;602;48.000;7.840;2022-10-26T02:41:00;16.70;99.90
1225;DHT22;602;48.000;7.840;2022-10-26T02:43:28;16.70;99.90
1225;DHT22;602;48.000;7.840;2022-10-26T02:45:58;16.80;99.90
1225;DHT22;602;48.000;7.840;2022-10-26T02:48:27;16.70;99.90
1225;DHT22;602;48.000;7.840;2022-10-26T02:50:59;16.70;99.90
1225;DHT22;602;48.000;7.840;2022-10-26T02:53:30;16.40;99.90
1225;DHT22;602;48.000;7.840;2022-10-26T02:56:02;16.10;99.90
1225;DHT22;602;48.000;7.840;2022-10-26T02:58:33;16.10;99.90
1225;DHT22;602;48.000;7.840;2022-10-26T03:01:03;16.10;99.90
1225;DHT22;602;48.000;7.840;2022-10-26T03:03:31;16.10;99.90
1225;DHT22;602;48.000;7.840;2022-10-26T03:05:58;16.20;99.90
1225;DHT22;602;48.000;7.840;2022-10-26T03:08:25;16.30;99.90
1225;DHT22;602;48.000;7.840;2022-10-26T03:10:52;16.20;99.90
1225;DHT22;602;48.000;7.840;2022-10-26T03:13:19;16.10;99.90
1225;DHT22;602;48.000;7.840;2022-10-26T03:15:46;16.00;99.90
1225;DHT22;602;48.000;7.840;2022-10-26T03:18:13;16.10;99.90
1225;DHT22;602;48.000;7.840;2022-10-26T03:20:42;16.10;99.90
1225;DHT22;602;48.000;7.840;2022-10-26T03:23:09;16.20;99.90
1225;DHT22;602;48.000;7.840;2022-10-26T03:25:37;16.20;99.90
1225;DHT22;602;48.000;7.840;2022-10-26T03:28:04;16.30;99.90
1225;DHT22;602;48.000;7.840;2022-10-26T03:30:31;16.40;99.90
1225;DHT22;602;48.000;7.840;2022-10-26T03:32:58;16.40;99.90
1225;DHT22;602;48.000;7.840;2022-10-26T03:35:25;16.50;99.90
1225;DHT22;602;48.000;7.840;2022-10-26T03:37:53;16.60;99.90
1225;DHT22;602;48.000;7.840;2022-10-26T03:40:20;16.70;99.90
1225;DHT22;602;48.000;7.840;2022-10-26T03:42:47;16.80;99.90
1225;DHT22;602;48.000;7.840;2022-10-26T03:45:14;16.70;99.90
1225;DHT22;602;48.000;7.840;2022-10-26T03:47:45;16.60;99.90
1225;DHT22;602;48.000;7.840;2022-10-26T03:50:13;16.60;99.90
1225;DHT22;602;48.000;7.840;2022-10-26T03:52:40;16.70;99.90
1225;DHT22;602;48.000;7.840;2022-10-26T03:55:09;16.80;99.90
1225;DHT22;602;48.000;7.840;2022-10-26T03:57:39;16.50;99.90
1225;DHT22;602;48.000;7.840;2022-10-26T04:00:08;16.60;99.90
1225;DHT22;602;48.000;7.840;2022-10-26T04:02:35;16.60;99.90
1225;DHT22;602;48.000;7.840;2022-10-26T04:05:02;16.70;99.90
1225;DHT22;602;48.000;7.840;2022-10-26T04:07:29;16.60;99.90
1225;DHT22;602;48.000;7.840;2022-10-26T04:09:56;16.70;99.90
1225;DHT22;602;48.000;7.840;2022-10-26T04:12:24;16.70;99.90
1225;DHT22;602;48.000;7.840;2022-10-26T04:14:51;16.80;99.90
1225;DHT22;602;48.000;7.840;2022-10-26T04:17:17;16.90;99.90
1225;DHT22;602;48.000;7.840;2022-10-26T04:19:44;16.90;99.90
1225;DHT22;602;48.000;7.840;2022-10-26T04:22:11;16.90;99.90
1225;DHT22;602;48.000;7.840;2022-10-26T04:24:38;16.60;99.90
1225;DHT22;602;48.000;7.840;2022-10-26T04:27:05;16.70;99.90
1225;DHT22;602;48.000;7.840;2022-10-26T04:29:33;16.60;99.90
1225;DHT22;602;48.000;7.840;2022-10-26T04:32:00;16.50;99.90
1225;DHT22;602;48.000;7.840;2022-10-26T04:34:26;16.60;99.90
1225;DHT22;602;48.000;7.840;2022-10-26T04:36:54;16.60;99.90
1225;DHT22;602;48.000;7.840;2022-10-26T04:39:21;16.70;99.90
1225;DHT22;602;48.000;7.840;2022-10-26T04:41:48;16.70;99.90
1225;DHT22;602;48.000;7.840;2022-10-26T04:44:14;16.80;99.90
1225;DHT22;602;48.000;7.840;2022-10-26T04:46:43;16.80;99.90
1225;DHT22;602;48.000;7.840;2022-10-26T04:49:10;16.80;99.90
1225;DHT22;602;48.000;7.840;2022-10-26T04:51:36;16.90;99.90
1225;DHT22;602;48.000;7.840;2022-10-26T04:54:03;17.00;99.90
1225;DHT22;602;48.000;7.840;2022-10-26T04:56:31;17.10;99.90
1225;DHT22;602;48.000;7.840;2022-10-26T04:58:58;17.10;99.90
1225;DHT22;602;48.000;7.840;2022-10-26T05:01:25;17.20;99.90
1225;DHT22;602;48.000;7.840;2022-10-26T05:03:54;17.20;99.90
1225;DHT22;602;48.000;7.840;2022-10-26T05:06:21;17.30;99.90
1225;DHT22;602;48.000;7.840;2022-10-26T05:08:48;17.30;99.90
1225;DHT22;602;48.000;7.840;2022-10-26T05:11:15;17.30;99.90
1225;DHT22;602;48.000;7.840;2022-10-26T05:13:42;17.40;99.90
1225;DHT22;602;48.000;7.840;2022-10-26T05:16:08;17.40;99.90
1225;DHT22;602;48.000;7.840;2022-10-26T05:18:35;17.30;99.90
1225;DHT22;602;48.000;7.840;2022-10-26T05:21:04;17.30;99.90
1225;DHT22;602;48.000;7.840;2022-10-26T05:23:31;17.30;99.90
1225;DHT22;602;48.000;7.840;2022-10-26T05:25:57;17.30;99.90
1225;DHT22;602;48.000;7.840;2022-10-26T05:28:24;17.40;99.90
1225;DHT22;602;48.000;7.840;2022-10-26T05:30:51;17.20;99.90
1225;DHT22;602;48.000;7.840;2022-10-26T05:33:18;17.20;99.90
1225;DHT22;602;48.000;7.840;2022-10-26T05:35:45;17.20;99.90
1225;DHT22;602;48.000;7.840;2022-10-26T05:38:14;17.30;99.90
1225;DHT22;602;48.000;7.840;2022-10-26T05:40:48;17.30;99.90
1225;DHT22;602;48.000;7.840;2022-10-26T05:43:16;17.40;99.90
1225;DHT22;602;48.000;7.840;2022-10-26T05:45:43;17.50;99.90
1225;DHT22;602;48.000;7.840;2022-10-26T05:48:10;17.40;99.90
1225;DHT22;602;48.000;7.840;2022-10-26T05:50:37;17.30;99.90
1225;DHT22;602;48.000;7.840;2022-10-26T05:53:04;17.40;99.90
1225;DHT22;602;48.000;7.840;2022-10-26T05:55:33;17.40;99.90
1225;DHT22;602;48.000;7.840;2022-10-26T05:58:00;17.40;99.90
1225;DHT22;602;48.000;7.840;2022-10-26T06:00:28;17.40;99.90
1225;DHT22;602;48.000;7.840;2022-10-26T06:03:15;17.50;99.90
1225;DHT22;602;48.000;7.840;2022-10-26T06:05:51;17.50;99.90
1225;DHT22;602;48.000;7.840;2022-10-26T06:08:19;17.50;99.90
1225;DHT22;602;48.000;7.840;2022-10-26T06:10:48;17.40;99.90
1225;DHT22;602;48.000;7.840;2022-10-26T06:13:16;17.40;99.90
1225;DHT22;602;48.000;7.840;2022-10-26T06:15:52;17.40;99.90
1225;DHT22;602;48.000;7.840;2022-10-26T06:18:30;17.40;99.90
1225;DHT22;602;48.000;7.840;2022-10-26T06:21:14;17.40;99.90
1225;DHT22;602;48.000;7.840;2022-10-26T06:23:51;17.40;99.90
1225;DHT22;602;48.000;7.840;2022-10-26T06:26:31;17.40;99.90
1225;DHT22;602;48.000;7.840;2022-10-26T06:29:09;17.40;99.90
1225;DHT22;602;48.000;7.840;2022-10-26T06:31:38;17.40;99.90
1225;DHT22;602;48.000;7.840;2022-10-26T06:34:05;17.40;99.90
1225;DHT22;602;48.000;7.840;2022-10-26T06:36:32;17.40;99.90
1225;DHT22;602;48.000;7.840;2022-10-26T06:39:02;17.10;99.90
1225;DHT22;602;48.000;7.840;2022-10-26T06:41:33;17.30;99.90
1225;DHT22;602;48.000;7.840;2022-10-26T06:44:00;17.30;99.90
1225;DHT22;602;48.000;7.840;2022-10-26T06:46:35;17.20;99.90
1225;DHT22;602;48.000;7.840;2022-10-26T06:49:09;17.30;99.90
1225;DHT22;602;48.000;7.840;2022-10-26T06:51:42;17.10;99.90
1225;DHT22;602;48.000;7.840;2022-10-26T06:54:16;17.20;99.90
1225;DHT22;602;48.000;7.840;2022-10-26T06:56:46;17.20;99.90
1225;DHT22;602;48.000;7.840;2022-10-26T06:59:16;17.30;99.90
1225;DHT22;602;48.000;7.840;2022-10-26T07:01:47;17.30;99.90
1225;DHT22;602;48.000;7.840;2022-10-26T07:04:14;17.40;99.90
1225;DHT22;602;48.000;7.840;2022-10-26T07:06:41;17.40;99.90
1225;DHT22;602;48.000;7.840;2022-10-26T07:09:08;17.50;99.90
1225;DHT22;602;48.000;7.840;2022-10-26T07:11:35;17.50;99.90
1225;DHT22;602;48.000;7.840;2022-10-26T07:14:03;17.50;99.90
1225;DHT22;602;48.000;7.840;2022-10-26T07:16:30;17.50;99.90
1225;DHT22;602;48.000;7.840;2022-10-26T07:18:57;17.60;99.90
1225;DHT22;602;48.000;7.840;2022-10-26T07:21:24;17.70;99.90
1225;DHT22;602;48.000;7.840;2022-10-26T07:23:51;17.80;99.90
1225;DHT22;602;48.000;7.840;2022-10-26T07:26:20;17.80;99.90
1225;DHT22;602;48.000;7.840;2022-10-26T07:28:47;17.90;99.90
1225;DHT22;602;48.000;7.840;2022-10-26T07:31:16;18.00;99.90
1225;DHT22;602;48.000;7.840;2022-10-26T07:33:43;18.10;99.90
1225;DHT22;602;48.000;7.840;2022-10-26T07:36:10;18.10;99.90
1225;DHT22;602;48.000;7.840;2022-10-26T07:38:37;18.30;99.90
1225;DHT22;602;48.000;7.840;2022-10-26T07:41:05;18.40;99.90
1225;DHT22;602;48.000;7.840;2022-10-26T07:43:32;18.40;99.90
1225;DHT22;602;48.000;7.840;2022-10-26T07:45:59;18.40;99.90
1225;DHT22;602;48.000;7.840;2022-10-26T07:48:27;18.30;99.90
1225;DHT22;602;48.000;7.840;2022-10-26T07:50:54;18.40;99.90
1225;DHT22;602;48.000;7.840;2022-10-26T07:53:21;18.50;99.90
1225;DHT22;602;48.000;7.840;2022-10-26T07:55:56;18.60;99.90
1225;DHT22;602;48.000;7.840;2022-10-26T07:58:23;18.70;99.90
1225;DHT22;602;48.000;7.840;2022-10-26T08:00:52;18.80;99.90
1225;DHT22;602;48.000;7.840;2022-10-26T08:03:19;18.90;99.90
1225;DHT22;602;48.000;7.840;2022-10-26T08:05:48;19.00;99.90
1225;DHT22;602;48.000;7.840;2022-10-26T08:08:16;19.10;99.90
1225;DHT22;602;48.000;7.840;2022-10-26T08:10:43;19.20;99.90
1225;DHT22;602;48.000;7.840;2022-10-26T08:13:10;19.20;99.90
1225;DHT22;602;48.000;7.840;2022-10-26T08:15:38;19.30;99.90
1225;DHT22;602;48.000;7.840;2022-10-26T08:18:05;19.40;99.90
1225;DHT22;602;48.000;7.840;2022-10-26T08:20:32;19.50;99.90
1225;DHT22;602;48.000;7.840;2022-10-26T08:23:01;19.50;99.90
1225;DHT22;602;48.000;7.840;2022-10-26T08:25:30;19.60;99.90
1225;DHT22;602;48.000;7.840;2022-10-26T08:28:00;19.60;99.90
1225;DHT22;602;48.000;7.840;2022-10-26T08:30:27;19.60;99.90
1225;DHT22;602;48.000;7.840;2022-10-26T08:32:58;19.60;99.90
1225;DHT22;602;48.000;7.840;2022-10-26T08:35:25;19.70;99.90
1225;DHT22;602;48.000;7.840;2022-10-26T08:37:52;19.60;99.90
1225;DHT22;602;48.000;7.840;2022-10-26T08:40:21;19.70;99.90
1225;DHT22;602;48.000;7.840;2022-10-26T08:42:54;19.80;99.90
1225;DHT22;602;48.000;7.840;2022-10-26T08:45:24;19.80;99.90
1225;DHT22;602;48.000;7.840;2022-10-26T08:47:54;19.90;99.90
1225;DHT22;602;48.000;7.840;2022-10-26T08:50:25;20.00;99.90
1225;DHT22;602;48.000;7.840;2022-10-26T08:52:55;20.00;99.90
1225;DHT22;602;48.000;7.840;2022-10-26T08:55:32;20.10;99.90
1225;DHT22;602;48.000;7.840;2022-10-26T08:58:01;20.20;99.90
1225;DHT22;602;48.000;7.840;2022-10-26T09:00:31;20.30;99.90
1225;DHT22;602;48.000;7.840;2022-10-26T09:02:58;20.30;99.90
1225;DHT22;602;48.000;7.840;2022-10-26T09:05:31;20.40;99.90
1225;DHT22;602;48.000;7.840;2022-10-26T09:08:05;20.40;99.90
1225;DHT22;602;48.000;7.840;2022-10-26T09:10:40;20.40;99.90
1225;DHT22;602;48.000;7.840;2022-10-26T09:13:19;20.40;99.90
1225;DHT22;602;48.000;7.840;2022-10-26T09:15:56;20.50;99.90
1225;DHT22;602;48.000;7.840;2022-10-26T09:18:41;20.50;99.90
1225;DHT22;602;48.000;7.840;2022-10-26T09:21:27;20.50;99.90
1225;DHT22;602;48.000;7.840;2022-10-26T09:24:08;20.50;99.90
1225;DHT22;602;48.000;7.840;2022-10-26T09:26:51;20.60;99.90
1225;DHT22;602;48.000;7.840;2022-10-26T09:29:20;20.70;99.90
1225;DHT22;602;48.000;7.840;2022-10-26T09:31:49;20.80;99.90
1225;DHT22;602;48.000;7.840;2022-10-26T09:34:26;20.90;99.90
1225;DHT22;602;48.000;7.840;2022-10-26T09:36:54;21.00;99.90
1225;DHT22;602;48.000;7.840;2022-10-26T09:39:27;21.10;99.90
1225;DHT22;602;48.000;7.840;2022-10-26T09:41:59;21.30;99.90
1225;DHT22;602;48.000;7.840;2022-10-26T09:44:32;21.40;99.90
1225;DHT22;602;48.000;7.840;2022-10-26T09:47:03;21.60;99.90
1225;DHT22;602;48.000;7.840;2022-10-26T09:49:36;21.70;99.90
1225;DHT22;602;48.000;7.840;2022-10-26T09:52:06;22.00;99.90
1225;DHT22;602;48.000;7.840;2022-10-26T09:54:33;22.30;99.90
1225;DHT22;602;48.000;7.840;2022-10-26T09:57:03;22.50;99.90
1225;DHT22;602;48.000;7.840;2022-10-26T09:59:33;22.70;99.90
1225;DHT22;602;48.000;7.840;2022-10-26T10:02:35;22.90;99.90
1225;DHT22;602;48.000;7.840;2022-10-26T10:07:45;23.50;99.90
1225;DHT22;602;48.000;7.840;2022-10-26T10:10:16;23.70;99.90
1225;DHT22;602;48.000;7.840;2022-10-26T10:12:45;23.90;99.90
1225;DHT22;602;48.000;7.840;2022-10-26T10:15:18;24.20;99.90
1225;DHT22;602;48.000;7.840;2022-10-26T10:17:49;24.30;99.90
1225;DHT22;602;48.000;7.840;2022-10-26T10:20:21;24.40;99.90
1225;DHT22;602;48.000;7.840;2022-10-26T10:22:55;24.70;99.90
1225;DHT22;602;48.000;7.840;2022-10-26T10:25:35;25.00;99.90
1225;DHT22;602;48.000;7.840;2022-10-26T10:28:19;25.30;99.90
1225;DHT22;602;48.000;7.840;2022-10-26T10:30:51;25.20;99.90
1225;DHT22;602;48.000;7.840;2022-10-26T10:33:18;25.40;99.90
1225;DHT22;602;48.000;7.840;2022-10-26T10:35:49;25.50;99.90
1225;DHT22;602;48.000;7.840;2022-10-26T10:38:19;25.70;99.90
1225;DHT22;602;48.000;7.840;2022-10-26T10:40:50;25.80;99.90
1225;DHT22;602;48.000;7.840;2022-10-26T10:43:20;25.90;99.90
1225;DHT22;602;48.000;7.840;2022-10-26T10:45:49;26.00;99.90
1225;DHT22;602;48.000;7.840;2022-10-26T10:48:19;26.00;99.90
1225;DHT22;602;48.000;7.840;2022-10-26T10:50:54;26.10;99.90
1225;DHT22;602;48.000;7.840;2022-10-26T10:53:25;26.00;99.90
1225;DHT22;602;48.000;7.840;2022-10-26T10:56:06;26.10;99.90
1225;DHT22;602;48.000;7.840;2022-10-26T10:58:45;26.10;99.90
1225;DHT22;602;48.000;7.840;2022-10-26T11:01:18;26.10;99.90
1225;DHT22;602;48.000;7.840;2022-10-26T11:03:59;26.20;99.90
1225;DHT22;602;48.000;7.840;2022-10-26T11:06:31;26.30;99.90
1225;DHT22;602;48.000;7.840;2022-10-26T11:09:03;26.30;99.90
1225;DHT22;602;48.000;7.840;2022-10-26T11:11:35;26.50;99.90
1225;DHT22;602;48.000;7.840;2022-10-26T11:14:07;26.50;99.90
1225;DHT22;602;48.000;7.840;2022-10-26T11:16:38;26.60;99.90
1225;DHT22;602;48.000;7.840;2022-10-26T11:19:11;26.70;99.90
1225;DHT22;602;48.000;7.840;2022-10-26T11:21:44;26.80;99.90
1225;DHT22;602;48.000;7.840;2022-10-26T11:24:15;26.70;99.90
1225;DHT22;602;48.000;7.840;2022-10-26T11:26:46;26.80;99.90
1225;DHT22;602;48.000;7.840;2022-10-26T11:29:34;26.80;99.90
1225;DHT22;602;48.000;7.840;2022-10-26T11:32:10;26.90;99.90
1225;DHT22;602;48.000;7.840;2022-10-26T11:34:44;26.80;99.90
1225;DHT22;602;48.000;7.840;2022-10-26T11:37:14;27.10;99.90
1225;DHT22;602;48.000;7.840;2022-10-26T11:39:44;27.20;99.90
1225;DHT22;602;48.000;7.840;2022-10-26T11:42:21;27.30;99.90
1225;DHT22;602;48.000;7.840;2022-10-26T11:44:56;27.40;99.90
1225;DHT22;602;48.000;7.840;2022-10-26T11:47:27;27.60;99.90
1225;DHT22;602;48.000;7.840;2022-10-26T11:50:03;27.80;99.90
1225;DHT22;602;48.000;7.840;2022-10-26T11:52:37;28.20;99.90
1225;DHT22;602;48.000;7.840;2022-10-26T11:55:08;28.40;99.90
1225;DHT22;602;48.000;7.840;2022-10-26T11:57:36;28.70;99.90
1225;DHT22;602;48.000;7.840;2022-10-26T12:00:07;28.70;99.90
1225;DHT22;602;48.000;7.840;2022-10-26T12:02:39;28.60;99.90
1225;DHT22;602;48.000;7.840;2022-10-26T12:05:17;28.60;99.90
1225;DHT22;602;48.000;7.840;2022-10-26T12:07:48;28.40;99.90
1225;DHT22;602;48.000;7.840;2022-10-26T12:10:23;28.30;99.90
1225;DHT22;602;48.000;7.840;2022-10-26T12:12:55;28.30;99.90
1225;DHT22;602;48.000;7.840;2022-10-26T12:15:29;28.30;99.90
1225;DHT22;602;48.000;7.840;2022-10-26T12:18:05;28.30;99.90
1225;DHT22;602;48.000;7.840;2022-10-26T12:20:59;28.20;99.90
1225;DHT22;602;48.000;7.840;2022-10-26T12:23:29;28.10;99.90
1225;DHT22;602;48.000;7.840;2022-10-26T12:29:35;28.50;99.90
1225;DHT22;602;48.000;7.840;2022-10-26T12:35:41;28.40;99.90
1225;DHT22;602;48.000;7.840;2022-10-26T12:41:19;28.40;99.90
1225;DHT22;602;48.000;7.840;2022-10-26T12:43:47;28.50;99.90
1225;DHT22;602;48.000;7.840;2022-10-26T12:46:42;28.50;99.90
1225;DHT22;602;48.000;7.840;2022-10-26T12:52:47;28.50;99.90
1225;DHT22;602;48.000;7.840;2022-10-26T13:01:40;28.60;99.90
1225;DHT22;602;48.000;7.840;2022-10-26T13:04:35;28.50;99.90
1225;DHT22;602;48.000;7.840;2022-10-26T13:07:18;28.60;99.90
1225;DHT22;602;48.000;7.840;2022-10-26T13:09:54;28.50;99.90
1225;DHT22;602;48.000;7.840;2022-10-26T13:12:21;28.30;99.90
1225;DHT22;602;48.000;7.840;2022-10-26T13:14:59;28.30;99.90
1225;DHT22;602;48.000;7.840;2022-10-26T13:17:28;28.10;99.90
1225;DHT22;602;48.000;7.840;2022-10-26T13:19:59;28.00;99.90
1225;DHT22;602;48.000;7.840;2022-10-26T13:22:26;28.10;99.90
1225;DHT22;602;48.000;7.840;2022-10-26T13:24:56;28.10;99.90
1225;DHT22;602;48.000;7.840;2022-10-26T13:27:44;27.90;99.90
1225;DHT22;602;48.000;7.840;2022-10-26T13:30:45;27.60;99.90
1225;DHT22;602;48.000;7.840;2022-10-26T13:33:21;27.40;99.90
1225;DHT22;602;48.000;7.840;2022-10-26T13:35:52;27.40;99.90
1225;DHT22;602;48.000;7.840;2022-10-26T13:38:22;27.50;99.90
1225;DHT22;602;48.000;7.840;2022-10-26T13:40:55;27.40;99.90
1225;DHT22;602;48.000;7.840;2022-10-26T13:43:25;27.40;99.90
1225;DHT22;602;48.000;7.840;2022-10-26T13:45:54;27.30;99.90
1225;DHT22;602;48.000;7.840;2022-10-26T13:48:28;27.00;99.90
1225;DHT22;602;48.000;7.840;2022-10-26T13:50:59;27.00;99.90
1225;DHT22;602;48.000;7.840;2022-10-26T13:53:35;26.80;99.90
1225;DHT22;602;48.000;7.840;2022-10-26T13:56:07;26.70;99.90
1225;DHT22;602;48.000;7.840;2022-10-26T13:58:41;26.60;99.90
1225;DHT22;602;48.000;7.840;2022-10-26T14:01:15;26.50;99.90
1225;DHT22;602;48.000;7.840;2022-10-26T14:03:43;26.40;99.90
1225;DHT22;602;48.000;7.840;2022-10-26T14:06:16;26.40;99.90
1225;DHT22;602;48.000;7.840;2022-10-26T14:08:44;26.20;99.90
1225;DHT22;602;48.000;7.840;2022-10-26T14:11:18;26.10;99.90
1225;DHT22;602;48.000;7.840;2022-10-26T14:13:48;25.90;99.90
1225;DHT22;602;48.000;7.840;2022-10-26T14:16:17;25.90;99.90
1225;DHT22;602;48.000;7.840;2022-10-26T14:18:46;25.90;99.90
1225;DHT22;602;48.000;7.840;2022-10-26T14:21:16;25.90;99.90
1225;DHT22;602;48.000;7.840;2022-10-26T14:23:46;25.90;99.90
1225;DHT22;602;48.000;7.840;2022-10-26T14:26:20;25.80;99.90
1225;DHT22;602;48.000;7.840;2022-10-26T14:28:50;25.80;99.90
1225;DHT22;602;48.000;7.840;2022-10-26T14:31:23;25.80;99.90
1225;DHT22;602;48.000;7.840;2022-10-26T14:33:50;25.70;99.90
1225;DHT22;602;48.000;7.840;2022-10-26T14:36:19;25.60;99.90
1225;DHT22;602;48.000;7.840;2022-10-26T14:38:49;25.50;99.90
1225;DHT22;602;48.000;7.840;2022-10-26T14:41:19;25.40;99.90
1225;DHT22;602;48.000;7.840;2022-10-26T14:43:46;25.30;99.90
1225;DHT22;602;48.000;7.840;2022-10-26T14:46:15;25.30;99.90
1225;DHT22;602;48.000;7.840;2022-10-26T14:48:51;25.30;99.90
1225;DHT22;602;48.000;7.840;2022-10-26T14:51:20;25.20;99.90
1225;DHT22;602;48.000;7.840;2022-10-26T14:53:48;25.20;99.90
1225;DHT22;602;48.000;7.840;2022-10-26T14:56:27;25.10;99.90
1225;DHT22;602;48.000;7.840;2022-10-26T14:58:56;25.00;99.90
1225;DHT22;602;48.000;7.840;2022-10-26T15:01:29;25.00;99.90
1225;DHT22;602;48.000;7.840;2022-10-26T15:03:58;25.00;99.90
1225;DHT22;602;48.000;7.840;2022-10-26T15:06:43;25.00;99.90
1225;DHT22;602;48.000;7.840;2022-10-26T15:09:31;24.90;99.90
1225;DHT22;602;48.000;7.840;2022-10-26T15:12:03;24.90;99.90
1225;DHT22;602;48.000;7.840;2022-10-26T15:14:30;24.90;99.90
1225;DHT22;602;48.000;7.840;2022-10-26T15:16:58;24.80;99.90
1225;DHT22;602;48.000;7.840;2022-10-26T15:19:26;24.80;99.90
1225;DHT22;602;48.000;7.840;2022-10-26T15:21:54;24.70;99.90
1225;DHT22;602;48.000;7.840;2022-10-26T15:24:29;24.60;99.90
1225;DHT22;602;48.000;7.840;2022-10-26T15:26:56;24.50;99.90
1225;DHT22;602;48.000;7.840;2022-10-26T15:29:39;24.50;99.90
1225;DHT22;602;48.000;7.840;2022-10-26T15:32:19;24.50;99.90
1225;DHT22;602;48.000;7.840;2022-10-26T15:35:11;24.40;99.90
1225;DHT22;602;48.000;7.840;2022-10-26T15:37:39;24.40;99.90
1225;DHT22;602;48.000;7.840;2022-10-26T15:40:07;24.40;99.90
1225;DHT22;602;48.000;7.840;2022-10-26T15:42:34;24.30;99.90
1225;DHT22;602;48.000;7.840;2022-10-26T15:45:14;24.30;99.90
1225;DHT22;602;48.000;7.840;2022-10-26T15:47:41;24.20;99.90
1225;DHT22;602;48.000;7.840;2022-10-26T15:50:15;24.20;99.90
1225;DHT22;602;48.000;7.840;2022-10-26T15:52:42;24.20;99.90
1225;DHT22;602;48.000;7.840;2022-10-26T15:55:09;24.10;99.90
1225;DHT22;602;48.000;7.840;2022-10-26T15:57:37;24.10;99.90
1225;DHT22;602;48.000;7.840;2022-10-26T16:00:07;24.10;99.90
1225;DHT22;602;48.000;7.840;2022-10-26T16:02:38;24.10;99.90
1225;DHT22;602;48.000;7.840;2022-10-26T16:05:08;24.10;99.90
1225;DHT22;602;48.000;7.840;2022-10-26T16:07:37;24.00;99.90
1225;DHT22;602;48.000;7.840;2022-10-26T16:10:07;24.00;99.90
1225;DHT22;602;48.000;7.840;2022-10-26T16:12:34;24.00;99.90
1225;DHT22;602;48.000;7.840;2022-10-26T16:15:01;23.90;99.90
1225;DHT22;602;48.000;7.840;2022-10-26T16:17:29;23.70;99.90
1225;DHT22;602;48.000;7.840;2022-10-26T16:19:58;23.70;99.90
1225;DHT22;602;48.000;7.840;2022-10-26T16:22:26;23.70;99.90
1225;DHT22;602;48.000;7.840;2022-10-26T16:24:53;23.60;99.90
1225;DHT22;602;48.000;7.840;2022-10-26T16:27:20;23.60;99.90
1225;DHT22;602;48.000;7.840;2022-10-26T16:29:47;23.50;99.90
1225;DHT22;602;48.000;7.840;2022-10-26T16:32:14;23.40;99.90
1225;DHT22;602;48.000;7.840;2022-10-26T16:34:42;23.30;99.90
1225;DHT22;602;48.000;7.840;2022-10-26T16:37:09;23.20;99.90
1225;DHT22;602;48.000;7.840;2022-10-26T16:39:36;23.10;99.90
1225;DHT22;602;48.000;7.840;2022-10-26T16:42:03;23.00;99.90
1225;DHT22;602;48.000;7.840;2022-10-26T16:44:31;22.80;99.90
1225;DHT22;602;48.000;7.840;2022-10-26T16:46:58;22.70;99.90
1225;DHT22;602;48.000;7.840;2022-10-26T16:49:24;22.60;99.90
1225;DHT22;602;48.000;7.840;2022-10-26T16:51:53;22.40;99.90
1225;DHT22;602;48.000;7.840;2022-10-26T16:54:21;22.30;99.90
1225;DHT22;602;48.000;7.840;2022-10-26T16:56:49;22.30;99.90
1225;DHT22;602;48.000;7.840;2022-10-26T16:59:16;22.30;99.90
1225;DHT22;602;48.000;7.840;2022-10-26T17:01:43;22.20;99.90
1225;DHT22;602;48.000;7.840;2022-10-26T17:04:10;22.20;99.90